Time;durP1;ratioP1;P1;durP2;ratioP2;P2;SDS_P1;SDS_P2;PMS_P1;PMS_P2;Temp;Humidity;BMP_temperature;BMP_pressure;BME280_temperature;BME280_humidity;BME280_pressure;Samples;Min_cycle;Max_cycle;Signal;HPM_P1;HPM_P2
2022/02/05 00:01:09;;;;;;;21.20;19.30;;;;;;;5.49;100.00;98325.69;2084719;28;20199;-73
2022/02/05 00:02:16;;;;;;;22.23;19.92;;;;;;;5.51;100.00;98320.88;2091373;28;20199;-73
2022/02/05 00:03:25;;;;;;;22.20;20.10;;;;;;;5.49;100.00;98324.88;2098592;28;20277;-73
2022/02/05 00:04:27;;;;;;;22.63;19.98;;;;;;;5.49;100.00;98317.75;2091837;28;20206;-73
2022/02/05 00:05:36;;;;;;;22.25;19.63;;;;;;;5.47;100.00;98321.72;2090515;28;20289;-73
2022/02/05 00:06:45;;;;;;;21.77;19.55;;;;;;;5.49;100.00;98317.75;2090403;28;20219;-73
2022/02/05 00:07:56;;;;;;;22.20;20.02;;;;;;;5.42;100.00;98314.63;2090966;28;20191;-73
2022/02/05 00:09:09;;;;;;;24.02;19.27;;;;;;;5.46;100.00;98313.00;2091541;28;20621;-73
2022/02/05 00:10:32;;;;;;;21.33;19.33;;;;;;;5.55;100.00;98308.66;2091499;28;20191;-73
2022/02/05 00:14:44;;;;;;;21.88;19.67;;;;;;;5.43;100.00;98299.53;2074998;28;20210;-73
2022/02/05 00:16:03;;;;;;;21.92;19.83;;;;;;;5.38;100.00;98298.50;2095240;28;20209;-74
2022/02/05 00:38:59;;;;;;;22.20;20.10;;;;;;;5.46;100.00;98297.13;2091662;28;20632;-73
2022/02/05 00:40:06;;;;;;;22.42;19.83;;;;;;;5.47;100.00;98296.03;2098367;28;20209;-73
2022/02/05 00:41:16;;;;;;;21.70;19.58;;;;;;;5.45;100.00;98303.47;2090630;28;20190;-73
2022/02/05 00:42:29;;;;;;;22.17;20.08;;;;;;;5.41;100.00;98307.78;2083271;28;20223;-73
2022/02/05 00:43:37;;;;;;;20.92;18.98;;;;;;;5.40;100.00;98306.19;2091439;28;20199;-74
2022/02/05 00:44:41;;;;;;;22.00;20.00;;;;;;;5.42;100.00;98304.06;2098094;28;20592;-73
2022/02/05 00:45:49;;;;;;;22.45;20.35;;;;;;;5.41;100.00;98306.97;2090441;28;20289;-72
2022/02/05 00:46:56;;;;;;;22.48;20.30;;;;;;;5.39;100.00;98305.41;2090577;28;20304;-73
2022/02/05 00:48:03;;;;;;;22.50;20.35;;;;;;;5.40;100.00;98308.84;2090732;28;20179;-73
2022/02/05 00:49:07;;;;;;;21.65;19.67;;;;;;;5.38;100.00;98313.59;2091225;28;20194;-73
2022/02/05 00:50:22;;;;;;;22.58;20.38;;;;;;;5.34;100.00;98312.59;2091544;28;20193;-73
2022/02/05 00:51:30;;;;;;;22.90;20.85;;;;;;;5.35;100.00;98308.88;2098198;28;20249;-74
2022/02/05 00:52:34;;;;;;;23.08;20.95;;;;;;;5.42;100.00;98304.06;2098372;28;20197;-73
2022/02/05 00:53:38;;;;;;;23.55;21.35;;;;;;;5.56;100.00;98310.25;2098913;28;20728;-73
2022/02/05 00:54:47;;;;;;;22.25;20.27;;;;;;;5.56;100.00;98314.72;2098727;28;20195;-73
2022/02/05 00:55:58;;;;;;;22.25;20.25;;;;;;;5.44;100.00;98312.50;2090449;28;20238;-73
2022/02/05 00:57:30;;;;;;;22.45;20.13;;;;;;;5.46;100.00;98323.56;2091081;28;20258;-73
2022/02/05 00:58:33;;;;;;;26.38;21.52;;;;;;;5.42;100.00;98314.63;2091360;28;20187;-73
2022/02/05 00:59:34;;;;;;;23.65;21.30;;;;;;;5.39;100.00;98308.06;2091062;28;20574;-73
2022/02/05 01:00:38;;;;;;;22.73;20.60;;;;;;;5.38;100.00;98313.59;2098741;28;20197;-73
2022/02/05 01:01:45;;;;;;;21.92;19.98;;;;;;;5.50;100.00;98306.09;2098429;28;20195;-73
2022/02/05 01:02:52;;;;;;;22.30;20.08;;;;;;;5.49;100.00;98315.09;2089944;28;20202;-73
2022/02/05 01:03:59;;;;;;;23.40;21.10;;;;;;;5.46;100.00;98310.34;2083348;28;20225;-73
2022/02/05 01:05:05;;;;;;;23.17;20.98;;;;;;;5.51;100.00;98302.38;2082641;28;20195;-73
2022/02/05 01:06:09;;;;;;;23.50;21.27;;;;;;;5.54;100.00;98304.44;2089607;28;20206;-73
2022/02/05 01:07:11;;;;;;;23.25;21.15;;;;;;;5.49;100.00;98309.03;2090787;28;20175;-73
2022/02/05 01:08:17;;;;;;;23.35;21.00;;;;;;;5.48;100.00;98302.16;2091364;28;20556;-73
2022/02/05 01:09:21;;;;;;;25.17;21.15;;;;;;;5.42;100.00;98308.56;2090292;28;20202;-73
2022/02/05 01:10:25;;;;;;;22.67;20.67;;;;;;;5.39;100.00;98309.91;2091117;28;20226;-73
2022/02/05 01:11:28;;;;;;;23.98;21.73;;;;;;;5.52;100.00;98311.88;2091635;28;20214;-73
2022/02/05 01:12:32;;;;;;;23.02;20.92;;;;;;;5.52;100.00;98305.81;2098799;28;20198;-73
2022/02/05 01:13:36;;;;;;;22.08;20.02;;;;;;;5.47;100.00;98311.91;2098753;28;20201;-73
2022/02/05 01:14:46;;;;;;;21.95;20.15;;;;;;;5.51;100.00;98307.66;2090587;28;20206;-73
2022/02/05 01:16:00;;;;;;;24.15;21.77;;;;;;;5.42;100.00;98298.75;2091362;28;20229;-73
2022/02/05 01:17:06;;;;;;;23.35;21.02;;;;;;;5.41;100.00;98306.97;2097160;28;20306;-73
2022/02/05 01:18:11;;;;;;;23.27;21.08;;;;;;;5.39;100.00;98300.13;2091070;28;20192;-73
2022/02/05 01:19:34;;;;;;;23.05;20.88;;;;;;;5.38;100.00;98319.69;2090521;28;20191;-73
2022/02/05 01:22:01;;;;;;;23.23;21.05;;;;;;;5.39;100.00;98296.69;2090456;28;20345;-74
2022/02/05 01:23:07;;;;;;;23.73;21.42;;;;;;;5.41;100.00;98299.84;2090979;28;20189;-73
2022/02/05 01:24:16;;;;;;;23.02;20.98;;;;;;;5.41;100.00;98293.75;2088486;28;20203;-73
2022/02/05 01:25:27;;;;;;;23.70;21.55;;;;;;;5.44;100.00;98303.75;2090912;28;20607;-74
2022/02/05 01:26:37;;;;;;;25.20;22.73;;;;;;;5.39;100.00;98294.03;2097446;28;20568;-73
2022/02/05 01:27:44;;;;;;;25.23;22.80;;;;;;;5.43;100.00;98302.97;2091203;28;20179;-73
2022/02/05 01:28:54;;;;;;;24.00;21.85;;;;;;;5.42;100.00;98293.47;2090267;28;20221;-73
2022/02/05 01:30:12;;;;;;;23.88;21.77;;;;;;;5.41;100.00;98294.53;2083147;28;20265;-73
2022/02/05 01:31:23;;;;;;;25.40;22.85;;;;;;;5.42;100.00;98287.41;2092526;28;20205;-73
2022/02/05 01:32:29;;;;;;;25.27;22.73;;;;;;;5.37;100.00;98296.16;2097895;28;20272;-73
2022/02/05 01:34:59;;;;;;;26.05;23.25;;;;;;;5.38;100.00;98292.44;2090177;28;20187;-73
2022/02/05 01:36:19;;;;;;;25.27;22.63;;;;;;;5.43;100.00;98300.34;2090503;28;20172;-74
2022/02/05 01:51:02;;;;;;;24.92;22.40;;;;;;;5.28;100.00;98284.63;2090450;28;20252;-74
2022/02/05 01:52:13;;;;;;;24.08;21.83;;;;;;;5.32;100.00;98289.06;2089411;28;20214;-74
2022/02/05 01:53:30;;;;;;;25.17;22.92;;;;;;;5.33;100.00;98287.22;2091524;28;20661;-74
2022/02/05 01:54:52;;;;;;;25.88;23.02;;;;;;;5.34;100.00;98284.28;2090015;28;20198;-73
2022/02/05 01:56:16;;;;;;;25.38;22.90;;;;;;;5.31;100.00;98286.72;2090664;28;20206;-73
2022/02/05 01:57:25;;;;;;;24.98;22.52;;;;;;;5.31;100.00;98286.72;2090708;28;20240;-73
2022/02/05 01:58:40;;;;;;;24.30;21.92;;;;;;;5.29;100.00;98284.31;2089901;28;20673;-74
2022/02/05 02:04:40;;;;;;;24.65;22.25;;;;;;;5.27;100.00;98283.81;2083572;28;20760;-74
2022/02/05 02:05:29;;;;;;;23.27;20.83;;;;;;;5.30;100.00;98285.94;2089939;28;20252;-74
2022/02/05 02:06:58;;;;;;;24.33;21.98;;;;;;;5.32;100.00;98294.38;2089704;28;20253;-73
2022/02/05 02:11:04;;;;;;;23.40;21.10;;;;;;;5.34;100.00;98296.72;2092682;28;20214;-73
2022/02/05 02:12:12;;;;;;;22.80;20.63;;;;;;;5.38;100.00;98289.78;2094647;28;20245;-73
2022/02/05 02:13:49;;;;;;;21.85;20.05;;;;;;;5.39;100.00;98286.09;2089561;28;20202;-73
2022/02/05 02:14:58;;;;;;;22.67;20.60;;;;;;;5.41;100.00;98286.59;2090477;28;20175;-74
2022/02/05 02:16:13;;;;;;;22.77;20.67;;;;;;;5.38;100.00;98280.00;2089861;28;20206;-73
2022/02/05 02:18:57;;;;;;;22.83;20.70;;;;;;;5.42;100.00;98276.81;2065024;28;20738;-74
2022/02/05 02:21:34;;;;;;;23.67;21.48;;;;;;;5.41;100.00;98267.31;2086839;28;20226;-74
2022/02/05 02:22:46;;;;;;;23.23;20.88;;;;;;;5.31;100.00;98255.78;2090559;28;20687;-74
2022/02/05 02:24:01;;;;;;;23.52;21.15;;;;;;;5.25;100.00;98256.09;2098193;28;20739;-73
2022/02/05 02:25:13;;;;;;;22.92;20.73;;;;;;;5.17;100.00;98254.84;2096532;28;20186;-73
2022/02/05 02:26:28;;;;;;;23.73;21.45;;;;;;;5.20;100.00;98269.34;2098180;28;20198;-74
2022/02/05 02:27:39;;;;;;;23.45;21.33;;;;;;;5.23;100.00;98274.09;2089418;28;20259;-74
2022/02/05 02:28:51;;;;;;;24.33;22.02;;;;;;;5.22;100.00;98275.19;2090140;28;20647;-74
2022/02/05 02:30:01;;;;;;;24.38;21.73;;;;;;;5.20;100.00;98280.72;2089743;28;20255;-74
2022/02/05 02:31:10;;;;;;;23.08;20.98;;;;;;;5.22;100.00;98288.41;2083156;28;20642;-74
2022/02/05 02:32:16;;;;;;;22.77;20.67;;;;;;;5.21;100.00;98278.88;2090122;28;20707;-74
2022/02/05 02:33:27;;;;;;;23.45;21.02;;;;;;;5.20;100.00;98282.56;2089249;28;20237;-74
2022/02/05 02:34:41;;;;;;;23.33;20.92;;;;;;;5.21;100.00;98284.16;2090286;28;20217;-74
2022/02/05 02:35:46;;;;;;;22.75;20.63;;;;;;;5.19;100.00;98284.44;2089098;28;20293;-74
2022/02/05 02:36:54;;;;;;;22.75;20.80;;;;;;;5.21;100.00;98289.44;2089674;28;20312;-74
2022/02/05 02:38:01;;;;;;;22.67;20.55;;;;;;;5.24;100.00;98296.84;2090615;28;20175;-74
2022/02/05 02:39:11;;;;;;;22.77;20.80;;;;;;;5.25;100.00;98296.53;2089802;28;20245;-74
2022/02/05 02:40:27;;;;;;;23.45;21.25;;;;;;;5.26;100.00;98294.69;2090068;28;20197;-74
2022/02/05 02:41:34;;;;;;;22.33;20.13;;;;;;;5.28;100.00;98295.97;2090495;28;20649;-74
2022/02/05 02:42:43;;;;;;;22.10;19.88;;;;;;;5.28;100.00;98287.25;2090339;28;20205;-74
2022/02/05 02:43:45;;;;;;;22.08;20.05;;;;;;;5.27;100.00;98294.41;2090315;28;20223;-74
2022/02/05 02:44:52;;;;;;;23.75;21.35;;;;;;;5.28;100.00;98290.69;2098014;28;20598;-74
2022/02/05 02:45:59;;;;;;;21.85;19.85;;;;;;;5.30;100.00;98300.97;2097092;28;20292;-74
2022/02/05 02:47:03;;;;;;;22.95;20.63;;;;;;;5.28;100.00;98303.13;2082256;28;20222;-73
2022/02/05 02:48:06;;;;;;;22.92;20.83;;;;;;;5.30;100.00;98293.03;2081505;28;20211;-74
2022/02/05 02:49:19;;;;;;;23.30;21.02;;;;;;;5.31;100.00;98300.72;2089888;28;20197;-73
2022/02/05 02:50:34;;;;;;;23.05;20.85;;;;;;;5.31;100.00;98299.94;2096476;28;20202;-73
2022/02/05 02:57:19;;;;;;;24.13;21.77;;;;;;;5.30;100.00;98300.97;2089716;28;20331;-74
2022/02/05 02:58:25;;;;;;;23.73;21.10;;;;;;;5.29;100.00;98299.41;2089778;28;20190;-74
2022/02/05 02:59:47;;;;;;;24.10;21.40;;;;;;;5.31;100.00;98297.28;2081972;28;20633;-74
2022/02/05 03:00:56;;;;;;;24.70;22.10;;;;;;;5.33;100.00;98297.78;2089961;28;20612;-74
2022/02/05 03:02:09;;;;;;;23.27;21.00;;;;;;;5.31;100.00;98294.66;2090679;28;20199;-74
2022/02/05 03:03:15;;;;;;;23.70;21.50;;;;;;;5.30;100.00;98293.88;2090509;28;20229;-74
2022/02/05 03:04:18;;;;;;;24.13;21.63;;;;;;;5.32;100.00;98283.00;2090486;28;20195;-74
2022/02/05 03:05:20;;;;;;;24.08;21.88;;;;;;;5.31;100.00;98292.78;2090425;28;20189;-74
2022/02/05 03:06:25;;;;;;;24.10;21.83;;;;;;;5.36;100.00;98287.44;2089846;28;20218;-73
2022/02/05 03:07:32;;;;;;;24.38;21.77;;;;;;;5.32;100.00;98288.28;2090253;28;20683;-74
2022/02/05 03:08:38;;;;;;;24.60;22.17;;;;;;;5.37;100.00;98285.56;2089364;28;20203;-72
2022/02/05 03:09:45;;;;;;;25.42;22.92;;;;;;;5.36;100.00;98295.38;2089661;28;20587;-73
2022/02/05 03:10:47;;;;;;;24.33;22.10;;;;;;;5.35;100.00;98291.16;2090340;28;20660;-73
2022/02/05 03:11:51;;;;;;;24.95;22.52;;;;;;;5.32;100.00;98298.88;2090234;28;20707;-73
2022/02/05 03:12:55;;;;;;;23.42;20.92;;;;;;;5.35;100.00;98295.66;2098264;28;20544;-73
2022/02/05 03:14:01;;;;;;;23.50;21.20;;;;;;;5.32;100.00;98296.22;2097482;28;20668;-73
2022/02/05 03:15:06;;;;;;;22.50;20.40;;;;;;;5.32;100.00;98290.94;2089553;28;20215;-74
2022/02/05 03:16:20;;;;;;;23.52;21.05;;;;;;;5.33;100.00;98298.59;2081855;28;20203;-73
2022/02/05 03:17:25;;;;;;;23.75;21.33;;;;;;;5.30;100.00;98293.88;2089695;28;20221;-73
2022/02/05 03:18:30;;;;;;;24.25;21.60;;;;;;;5.29;100.00;98294.91;2097819;28;20229;-73
2022/02/05 03:19:37;;;;;;;23.35;20.95;;;;;;;5.30;100.00;98290.41;2089324;28;20195;-73
2022/02/05 03:20:41;;;;;;;23.98;21.60;;;;;;;5.29;100.00;98289.63;2089697;28;20203;-73
2022/02/05 03:21:48;;;;;;;23.02;20.90;;;;;;;5.32;100.00;98293.59;2096510;28;20609;-73
2022/02/05 03:22:56;;;;;;;23.85;21.48;;;;;;;5.35;100.00;98293.00;2089679;28;20245;-73
2022/02/05 03:24:04;;;;;;;23.60;20.98;;;;;;;5.35;100.00;98298.31;2097418;28;20198;-73
2022/02/05 03:25:08;;;;;;;24.10;21.67;;;;;;;5.31;100.00;98298.09;2097095;28;20275;-73
2022/02/05 03:26:11;;;;;;;22.55;20.55;;;;;;;5.37;100.00;98291.66;2090495;28;20198;-73
2022/02/05 03:27:18;;;;;;;23.58;21.10;;;;;;;5.42;100.00;98301.41;2089530;28;20222;-73
2022/02/05 03:28:21;;;;;;;23.17;20.98;;;;;;;5.39;100.00;98294.03;2089695;28;20324;-73
2022/02/05 03:29:31;;;;;;;24.90;21.85;;;;;;;5.36;100.00;98305.16;2090202;28;20195;-73
2022/02/05 03:30:35;;;;;;;22.83;20.65;;;;;;;5.37;100.00;98302.22;2089455;28;20199;-73
2022/02/05 03:31:37;;;;;;;23.90;21.63;;;;;;;5.38;100.00;98303.03;2089619;28;20202;-73
2022/02/05 03:32:42;;;;;;;22.95;20.83;;;;;;;5.38;100.00;98301.16;2090155;28;20203;-73
2022/02/05 03:33:46;;;;;;;22.38;20.20;;;;;;;5.39;100.00;98308.06;2097925;28;20794;-73
2022/02/05 03:34:54;;;;;;;21.95;19.77;;;;;;;5.39;100.00;98308.06;2089136;28;20222;-73
2022/02/05 03:35:58;;;;;;;22.00;19.90;;;;;;;5.39;100.00;98302.75;2081027;28;20203;-73
2022/02/05 03:37:01;;;;;;;21.35;19.48;;;;;;;5.43;100.00;98313.56;2088759;28;20203;-73
2022/02/05 03:38:04;;;;;;;22.05;20.00;;;;;;;5.40;100.00;98306.19;2089741;28;20203;-73
2022/02/05 03:39:10;;;;;;;21.85;19.85;;;;;;;5.43;100.00;98307.47;2097126;28;20672;-73
2022/02/05 03:40:13;;;;;;;22.85;20.85;;;;;;;5.43;100.00;98308.28;2089863;28;20172;-73
2022/02/05 03:41:18;;;;;;;23.00;20.75;;;;;;;5.42;100.00;98312.00;2089386;28;20202;-73
2022/02/05 03:42:23;;;;;;;21.40;19.60;;;;;;;5.40;100.00;98311.47;2089561;28;20242;-73
2022/02/05 03:43:28;;;;;;;22.92;20.63;;;;;;;5.38;100.00;98303.03;2089235;28;20195;-73
2022/02/05 03:44:37;;;;;;;21.63;19.63;;;;;;;5.42;100.00;98308.56;2089551;28;20190;-73
2022/02/05 03:45:39;;;;;;;21.77;19.98;;;;;;;5.46;100.00;98305.06;2089522;28;20642;-74
2022/02/05 03:46:42;;;;;;;22.55;20.35;;;;;;;5.49;100.00;98309.03;2081203;28;20204;-73
2022/02/05 03:47:50;;;;;;;21.92;19.98;;;;;;;5.49;100.00;98301.06;2090523;28;20190;-74
2022/02/05 03:48:58;;;;;;;21.80;20.10;;;;;;;5.59;100.00;98311.56;2098537;28;20202;-74
2022/02/05 03:50:03;;;;;;;22.48;20.48;;;;;;;5.54;100.00;98309.72;2098914;28;20291;-74
2022/02/05 03:51:07;;;;;;;24.05;21.85;;;;;;;5.50;100.00;98302.66;2091249;28;20702;-74
2022/02/05 03:52:10;;;;;;;23.60;20.88;;;;;;;5.57;100.00;98311.03;2091864;28;20180;-74
2022/02/05 03:53:12;;;;;;;22.67;20.52;;;;;;;5.53;100.00;98310.81;2091572;28;20264;-74
2022/02/05 03:54:20;;;;;;;22.73;20.50;;;;;;;5.50;100.00;98308.72;2091698;28;20194;-74
2022/02/05 03:55:21;;;;;;;21.67;19.73;;;;;;;5.52;100.00;98314.53;2090905;28;20202;-74
2022/02/05 03:56:24;;;;;;;22.73;19.90;;;;;;;5.50;100.00;98314.03;2090516;28;20201;-74
2022/02/05 03:57:27;;;;;;;23.00;20.98;;;;;;;5.50;100.00;98316.66;2091031;28;20633;-74
2022/02/05 03:58:32;;;;;;;22.15;20.25;;;;;;;5.50;100.00;98316.66;2091640;28;20271;-74
2022/02/05 03:59:37;;;;;;;23.70;21.50;;;;;;;5.52;100.00;98316.38;2098890;28;20217;-74
2022/02/05 04:00:38;;;;;;;23.50;21.38;;;;;;;5.50;100.00;98316.66;2098934;28;20535;-74
2022/02/05 04:01:43;;;;;;;23.27;21.15;;;;;;;5.47;100.00;98316.41;2090533;28;20199;-74
2022/02/05 04:02:47;;;;;;;23.40;20.90;;;;;;;5.50;100.00;98323.81;2091352;28;20199;-74
2022/02/05 04:03:53;;;;;;;22.95;20.85;;;;;;;5.50;100.00;98314.03;2090485;28;20187;-74
2022/02/05 04:04:59;;;;;;;24.13;21.90;;;;;;;5.50;100.00;98316.66;2090736;28;20285;-74
2022/02/05 04:06:03;;;;;;;22.95;20.75;;;;;;;5.50;100.00;98318.53;2090473;28;20176;-74
2022/02/05 04:07:06;;;;;;;23.80;21.45;;;;;;;5.47;100.00;98316.41;2091848;28;20713;-74
2022/02/05 04:08:13;;;;;;;22.98;20.85;;;;;;;5.49;100.00;98320.38;2091657;28;20187;-74
2022/02/05 04:09:24;;;;;;;23.13;20.77;;;;;;;5.49;100.00;98314.31;2098634;28;20723;-74
2022/02/05 04:10:28;;;;;;;23.38;21.00;;;;;;;5.51;100.00;98317.44;2097271;28;20202;-74
2022/02/05 04:11:36;;;;;;;22.35;20.17;;;;;;;5.51;100.00;98318.25;2091048;28;20210;-74
2022/02/05 04:16:47;;;;;;;22.38;20.35;;;;;;;5.52;100.00;98303.16;2084988;28;20280;-74
2022/02/05 04:17:53;;;;;;;22.83;20.33;;;;;;;5.55;100.00;98329.03;2091547;28;20690;-74
2022/02/05 04:18:59;;;;;;;23.42;20.52;;;;;;;5.54;100.00;98319.53;2091731;28;20532;-74
2022/02/05 04:20:02;;;;;;;22.92;20.52;;;;;;;5.53;100.00;98317.97;2098643;28;20194;-74
2022/02/05 04:21:06;;;;;;;23.02;20.70;;;;;;;5.51;100.00;98315.59;2089924;28;20195;-74
2022/02/05 04:22:13;;;;;;;23.05;20.67;;;;;;;5.55;100.00;98313.94;2082574;28;20207;-74
2022/02/05 04:23:17;;;;;;;22.63;20.52;;;;;;;5.54;100.00;98322.16;2091261;28;20223;-74
2022/02/05 04:24:26;;;;;;;22.70;20.60;;;;;;;5.52;100.00;98325.09;2098989;28;20206;-74
2022/02/05 04:25:28;;;;;;;23.33;20.88;;;;;;;5.54;100.00;98322.97;2091577;28;20179;-74
2022/02/05 04:26:35;;;;;;;22.80;20.65;;;;;;;5.52;100.00;98325.09;2090661;28;20199;-73
2022/02/05 04:27:37;;;;;;;23.38;21.02;;;;;;;5.51;100.00;98328.81;2090844;28;20694;-74
2022/02/05 04:28:39;;;;;;;23.65;21.42;;;;;;;5.48;100.00;98321.47;2091387;28;20213;-74
2022/02/05 04:29:42;;;;;;;22.13;19.98;;;;;;;5.42;100.00;98316.50;2091441;28;20236;-74
2022/02/05 04:30:47;;;;;;;22.23;20.33;;;;;;;5.38;100.00;98318.88;2091414;28;20201;-74
2022/02/05 04:31:56;;;;;;;23.08;20.77;;;;;;;5.37;100.00;98320.75;2090403;28;20290;-74
2022/02/05 04:33:01;;;;;;;22.30;20.33;;;;;;;5.39;100.00;98318.63;2083089;28;20208;-75
2022/02/05 04:34:05;;;;;;;22.27;20.13;;;;;;;5.35;100.00;98319.47;2090802;28;20199;-75
2022/02/05 04:35:09;;;;;;;22.70;20.40;;;;;;;5.33;100.00;98321.59;2091336;28;20187;-76
2022/02/05 04:36:17;;;;;;;22.83;20.73;;;;;;;5.30;100.00;98319.50;2098153;28;20726;-75
2022/02/05 04:37:28;;;;;;;21.67;19.73;;;;;;;5.25;100.00;98314.28;2098456;28;20198;-76
2022/02/05 04:38:36;;;;;;;22.20;20.23;;;;;;;5.25;100.00;98324.84;2097781;28;20567;-76
2022/02/05 04:39:48;;;;;;;22.48;20.40;;;;;;;5.20;100.00;98315.09;2098580;28;20206;-75
2022/02/05 04:40:56;;;;;;;23.17;20.73;;;;;;;5.21;100.00;98329.91;2096615;28;20209;-76
2022/02/05 04:42:07;;;;;;;22.98;20.88;;;;;;;5.19;100.00;98331.25;2090829;28;20167;-76
2022/02/05 04:43:23;;;;;;;22.45;20.40;;;;;;;5.16;100.00;98326.53;2098921;28;20194;-76
2022/02/05 04:44:49;;;;;;;21.88;19.83;;;;;;;5.17;100.00;98328.88;2096877;28;20585;-76
2022/02/05 04:46:21;;;;;;;22.00;20.08;;;;;;;5.20;100.00;98327.53;2098420;28;20222;-76
2022/02/05 04:50:27;;;;;;;20.63;18.83;;;;;;;5.19;100.00;98332.03;2060644;28;20197;-75
2022/02/05 04:51:52;;;;;;;21.20;19.20;;;;;;;5.18;100.00;98332.31;2092880;28;20233;-75
2022/02/05 04:53:22;;;;;;;21.20;19.50;;;;;;;5.24;100.00;98334.66;2089875;28;20227;-75
2022/02/05 04:54:45;;;;;;;21.23;19.27;;;;;;;5.17;100.00;98333.38;2094166;28;20229;-75
2022/02/05 04:57:40;;;;;;;22.52;20.52;;;;;;;5.16;100.00;98337.09;2069853;28;20207;-75
2022/02/05 04:59:05;;;;;;;21.40;19.80;;;;;;;5.11;100.00;98346.63;2091158;28;20191;-75
2022/02/05 05:00:26;;;;;;;21.58;19.88;;;;;;;5.09;100.00;98346.13;2098320;28;20206;-75
2022/02/05 05:01:42;;;;;;;20.40;18.73;;;;;;;5.08;100.00;98347.19;2089940;28;20207;-75
2022/02/05 05:03:03;;;;;;;21.52;19.52;;;;;;;5.11;100.00;98357.22;2091028;28;20201;-75
2022/02/05 05:04:20;;;;;;;21.25;19.45;;;;;;;5.16;100.00;98366.97;2090122;28;20199;-75
2022/02/05 05:05:41;;;;;;;20.73;19.02;;;;;;;5.15;100.00;98364.59;2090438;28;20210;-75
2022/02/05 05:07:49;;;;;;;21.10;19.17;;;;;;;5.20;100.00;98361.91;2090262;28;20708;-75
2022/02/05 05:09:55;;;;;;;22.00;20.08;;;;;;;5.19;100.00;98374.34;2073806;28;20192;-75
2022/02/05 05:12:33;;;;;;;23.15;21.10;;;;;;;5.22;100.00;98383.59;2090571;28;20244;-75
2022/02/05 05:15:28;;;;;;;21.95;20.15;;;;;;;5.18;100.00;98388.63;2089140;28;20561;-74
2022/02/05 05:19:27;;;;;;;22.45;20.65;;;;;;;5.05;100.00;98390.06;2090531;28;20191;-74
2022/02/05 05:20:34;;;;;;;22.75;20.95;;;;;;;5.02;100.00;98397.75;2091294;28;20186;-75
2022/02/05 05:21:38;;;;;;;23.27;21.13;;;;;;;5.06;100.00;98398.78;2089965;28;20238;-74
2022/02/05 05:22:44;;;;;;;22.65;20.83;;;;;;;5.08;100.00;98426.53;2090456;28;20186;-74
2022/02/05 05:23:46;;;;;;;23.90;21.80;;;;;;;5.08;100.00;98418.59;2090264;28;20198;-74
2022/02/05 05:24:48;;;;;;;26.25;24.25;;;;;;;5.06;100.00;98441.88;2090373;28;20210;-74
2022/02/05 05:25:51;;;;;;;26.60;24.42;;;;;;;4.92;100.00;98432.19;2090134;28;20203;-74
2022/02/05 05:26:56;;;;;;;25.70;23.70;;;;;;;4.84;100.00;98457.31;2090354;28;20233;-73
2022/02/05 05:28:00;;;;;;;26.63;24.50;;;;;;;4.77;100.00;98439.13;2090062;28;20199;-73
2022/02/05 05:29:02;;;;;;;26.67;24.45;;;;;;;4.69;100.00;98433.63;2090266;28;20669;-73
2022/02/05 05:30:09;;;;;;;27.00;24.73;;;;;;;4.65;100.00;98454.53;2090178;28;20597;-74
2022/02/05 05:31:12;;;;;;;26.77;24.67;;;;;;;4.65;100.00;98459.03;2090589;28;20175;-73
2022/02/05 05:32:17;;;;;;;26.40;24.50;;;;;;;4.63;100.00;98453.22;2090834;28;20653;-73
2022/02/05 05:33:20;;;;;;;26.13;24.02;;;;;;;4.58;100.00;98453.25;2098504;28;20210;-73
2022/02/05 05:34:25;;;;;;;27.67;25.15;;;;;;;4.61;100.00;98450.06;2098224;28;20194;-73
2022/02/05 05:35:29;;;;;;;25.50;23.20;;;;;;;4.59;100.00;98449.53;2090963;28;20657;-74
2022/02/05 05:36:32;;;;;;;25.23;23.25;;;;;;;4.62;100.00;98464.84;2090573;28;20280;-73
2022/02/05 05:37:36;;;;;;;26.65;24.55;;;;;;;4.63;100.00;98474.38;2089389;28;20657;-74
2022/02/05 05:38:38;;;;;;;25.35;23.23;;;;;;;4.63;100.00;98455.88;2090002;28;20233;-74
2022/02/05 05:39:43;;;;;;;24.45;22.55;;;;;;;4.66;100.00;98493.09;2097861;28;20236;-74
2022/02/05 05:40:46;;;;;;;25.17;23.23;;;;;;;4.69;100.00;98504.97;2082050;28;20595;-74
2022/02/05 05:41:51;;;;;;;27.40;25.20;;;;;;;4.65;100.00;98488.09;2089745;28;20209;-73
2022/02/05 05:43:00;;;;;;;26.45;24.45;;;;;;;4.58;100.00;98504.22;2089444;28;20203;-73
2022/02/05 05:44:13;;;;;;;26.63;24.73;;;;;;;4.46;100.00;98501.09;2082624;28;20219;-73
2022/02/05 05:45:30;;;;;;;27.00;24.83;;;;;;;4.29;100.00;98533.09;2083239;28;20199;-73
2022/02/05 05:46:34;;;;;;;23.52;21.83;;;;;;;3.98;100.00;98535.00;2090361;28;20723;-73
2022/02/05 05:47:49;;;;;;;23.70;21.98;;;;;;;3.87;100.00;98513.09;2090097;28;20194;-74
2022/02/05 05:49:10;;;;;;;24.23;22.38;;;;;;;3.79;100.00;98526.81;2090559;28;20254;-73
2022/02/05 05:50:36;;;;;;;23.95;22.20;;;;;;;3.79;100.00;98511.00;2090910;28;20187;-73
2022/02/05 05:51:36;;;;;;;21.98;20.38;;;;;;;3.68;100.00;98519.97;2090305;28;20222;-74
2022/02/05 05:52:39;;;;;;;21.73;20.13;;;;;;;3.68;100.00;98535.81;2090579;28;20257;-74
2022/02/05 05:53:46;;;;;;;22.25;20.58;;;;;;;3.68;100.00;98559.53;2089948;28;20201;-74
2022/02/05 05:54:50;;;;;;;22.38;20.67;;;;;;;3.66;100.00;98541.34;2090344;28;20202;-73
2022/02/05 05:55:55;;;;;;;20.90;19.40;;;;;;;3.63;100.00;98533.94;2090629;28;20186;-73
2022/02/05 05:56:57;;;;;;;21.15;19.65;;;;;;;3.60;100.00;98552.16;2090826;28;20179;-70
2022/02/05 05:58:02;;;;;;;20.05;18.65;;;;;;;3.59;100.00;98584.84;2090684;28;20587;-69
2022/02/05 05:59:06;;;;;;;19.67;18.35;;;;;;;3.59;100.00;98563.75;2090715;28;20187;-69
2022/02/05 06:00:12;;;;;;;19.90;18.50;;;;;;;3.59;100.00;98571.66;2090561;28;20226;-72
2022/02/05 06:01:18;;;;;;;20.48;19.08;;;;;;;3.56;100.00;98570.34;2097633;28;20656;-72
2022/02/05 06:02:23;;;;;;;19.67;18.35;;;;;;;3.59;100.00;98558.47;2097684;28;20195;-73
2022/02/05 06:03:26;;;;;;;20.15;18.85;;;;;;;3.61;100.00;98540.53;2089788;28;20195;-73
2022/02/05 06:04:30;;;;;;;20.55;18.70;;;;;;;3.56;100.00;98559.81;2090106;28;20198;-72
2022/02/05 06:05:35;;;;;;;19.48;18.20;;;;;;;3.57;100.00;98550.06;2090052;28;20207;-72
2022/02/05 06:06:40;;;;;;;18.45;17.35;;;;;;;3.57;100.00;98571.16;2089578;28;20665;-73
2022/02/05 06:07:48;;;;;;;19.73;18.42;;;;;;;3.52;100.00;98560.59;2089577;28;20549;-73
2022/02/05 06:08:56;;;;;;;19.50;18.30;;;;;;;3.50;100.00;98618.06;2082234;28;20211;-73
2022/02/05 06:10:00;;;;;;;19.05;17.70;;;;;;;3.50;100.00;98578.53;2090069;28;20199;-73
2022/02/05 06:11:03;;;;;;;17.85;16.70;;;;;;;3.48;100.00;98599.88;2097788;28;20198;-73
2022/02/05 06:12:06;;;;;;;17.95;16.85;;;;;;;3.49;100.00;98590.13;2090599;28;20191;-72
2022/02/05 06:13:14;;;;;;;18.13;16.80;;;;;;;3.47;100.00;98602.75;2090494;28;20210;-72
2022/02/05 06:14:20;;;;;;;18.27;17.05;;;;;;;3.51;100.00;98598.56;2090655;28;20187;-72
2022/02/05 06:15:24;;;;;;;18.10;16.80;;;;;;;3.51;100.00;98603.84;2090804;28;20175;-72
2022/02/05 06:16:32;;;;;;;17.98;16.77;;;;;;;3.54;100.00;98596.19;2090525;28;20567;-72
2022/02/05 06:17:33;;;;;;;18.58;17.38;;;;;;;3.46;100.00;98598.53;2090752;28;20210;-72
2022/02/05 06:18:36;;;;;;;18.00;16.80;;;;;;;3.44;100.00;98596.16;2090741;28;20197;-72
2022/02/05 06:19:40;;;;;;;17.85;16.65;;;;;;;3.45;100.00;98591.69;2090514;28;20240;-72
2022/02/05 06:20:45;;;;;;;19.13;17.80;;;;;;;3.45;100.00;98599.59;2090519;28;20187;-72
2022/02/05 06:21:48;;;;;;;18.65;17.33;;;;;;;3.38;100.00;98605.09;2090273;28;20229;-72
2022/02/05 06:22:52;;;;;;;18.20;17.00;;;;;;;3.36;100.00;98617.75;2090450;28;20195;-72
2022/02/05 06:23:54;;;;;;;18.38;17.17;;;;;;;3.33;100.00;98608.53;2090444;28;20194;-72
2022/02/05 06:24:58;;;;;;;18.25;17.00;;;;;;;3.36;100.00;98613.28;2089438;28;20203;-72
2022/02/05 06:26:01;;;;;;;19.02;17.83;;;;;;;3.33;100.00;98629.63;2089966;28;20199;-72
2022/02/05 06:27:03;;;;;;;18.70;17.30;;;;;;;3.35;100.00;98638.06;2090510;28;20195;-73